createdAt,value
2022-10-10T00:01:28.795Z,11.33
2022-10-10T00:03:55.888Z,11.32
2022-10-10T00:06:23.477Z,11.31
2022-10-10T00:08:50.925Z,11.30
2022-10-10T00:11:20.900Z,11.26
2022-10-10T00:13:49.363Z,11.28
2022-10-10T00:16:17.843Z,11.28
2022-10-10T00:18:45.367Z,11.25
2022-10-10T00:21:13.940Z,11.22
2022-10-10T00:23:42.046Z,11.25
2022-10-10T00:26:09.617Z,11.26
2022-10-10T00:28:39.053Z,11.26
2022-10-10T00:31:09.897Z,11.25
2022-10-10T00:33:37.852Z,11.20
2022-10-10T00:36:06.949Z,11.19
2022-10-10T00:38:34.105Z,11.20
2022-10-10T00:41:01.302Z,11.21
2022-10-10T00:43:30.030Z,11.24
2022-10-10T00:45:57.097Z,11.24
2022-10-10T00:48:32.757Z,11.24
2022-10-10T00:51:08.276Z,11.19
2022-10-10T00:53:43.506Z,11.24
2022-10-10T00:56:13.411Z,11.23
2022-10-10T00:58:44.033Z,11.21
2022-10-10T01:01:11.636Z,11.22
2022-10-10T01:03:38.614Z,11.23
2022-10-10T01:06:06.644Z,11.19
2022-10-10T01:08:33.880Z,11.18
2022-10-10T01:11:27.886Z,11.17
2022-10-10T01:14:21.882Z,11.18
2022-10-10T01:17:11.493Z,11.22
2022-10-10T01:20:26.366Z,11.18
2022-10-10T01:23:11.678Z,11.21
2022-10-10T01:26:19.000Z,11.16
2022-10-10T01:28:51.424Z,11.22
2022-10-10T01:31:22.795Z,11.16
2022-10-10T01:34:09.848Z,11.11
2022-10-10T01:37:08.908Z,11.12
2022-10-10T01:39:59.405Z,11.03
2022-10-10T01:42:43.821Z,10.97
2022-10-10T01:45:11.357Z,10.92
2022-10-10T01:47:39.199Z,10.77
2022-10-10T01:50:12.798Z,10.79
2022-10-10T01:53:01.639Z,10.50
2022-10-10T01:56:08.200Z,10.66
2022-10-10T01:59:16.852Z,10.55
2022-10-10T02:01:51.618Z,10.58
2022-10-10T02:04:57.082Z,10.47
2022-10-10T02:08:11.978Z,10.28
2022-10-10T02:10:49.464Z,10.34
2022-10-10T02:13:18.880Z,10.39
2022-10-10T02:15:52.124Z,10.31
2022-10-10T02:18:23.545Z,10.32
2022-10-10T02:20:51.920Z,10.26
2022-10-10T02:23:21.923Z,10.24
2022-10-10T02:25:54.088Z,10.25
2022-10-10T02:28:38.877Z,10.22
2022-10-10T02:31:17.108Z,10.25
2022-10-10T02:34:20.212Z,10.29
2022-10-10T02:36:53.262Z,10.24
2022-10-10T02:39:27.517Z,10.19
2022-10-10T02:41:54.623Z,10.17
2022-10-10T02:44:22.693Z,10.21
2022-10-10T02:46:49.805Z,10.21
2022-10-10T02:49:28.508Z,10.24
2022-10-10T02:51:55.372Z,10.24
2022-10-10T02:54:22.301Z,10.26
2022-10-10T02:56:49.309Z,10.25
2022-10-10T02:59:16.147Z,10.28
2022-10-10T03:01:43.732Z,10.28
2022-10-10T03:04:10.946Z,10.26
2022-10-10T03:06:37.723Z,10.31
2022-10-10T03:09:05.980Z,10.28
2022-10-10T03:11:33.011Z,10.31
2022-10-10T03:14:00.165Z,10.31
2022-10-10T03:16:27.056Z,10.31
2022-10-10T03:18:53.866Z,10.31
2022-10-10T03:21:20.843Z,10.29
2022-10-10T03:23:47.629Z,10.28
2022-10-10T03:26:14.546Z,10.31
2022-10-10T03:28:41.860Z,10.24
2022-10-10T03:31:08.828Z,10.26
2022-10-10T03:33:35.820Z,10.26
2022-10-10T03:36:02.784Z,10.26
2022-10-10T03:38:29.560Z,10.30
2022-10-10T03:40:56.697Z,10.25
2022-10-10T03:43:23.458Z,10.30
2022-10-10T03:45:50.802Z,10.27
2022-10-10T03:48:18.115Z,10.28
2022-10-10T03:50:44.919Z,10.24
2022-10-10T03:53:11.797Z,10.26
2022-10-10T03:55:43.146Z,10.28
2022-10-10T03:58:11.208Z,10.27
2022-10-10T04:00:38.786Z,10.28
2022-10-10T04:03:06.752Z,10.28
2022-10-10T04:05:35.978Z,10.27
2022-10-10T04:08:04.309Z,10.25
2022-10-10T04:10:31.872Z,10.24
2022-10-10T04:12:59.017Z,10.22
2022-10-10T04:15:26.099Z,10.16
2022-10-10T04:17:53.073Z,10.16
2022-10-10T04:20:20.060Z,10.12
2022-10-10T04:22:46.836Z,10.06
2022-10-10T04:25:13.756Z,10.06
2022-10-10T04:27:40.649Z,9.99
2022-10-10T04:30:08.247Z,9.95
2022-10-10T04:32:35.037Z,9.85
2022-10-10T04:35:01.989Z,9.75
2022-10-10T04:37:28.808Z,9.66
2022-10-10T04:39:56.112Z,9.57
2022-10-10T04:42:23.404Z,9.46
2022-10-10T04:44:50.379Z,9.36
2022-10-10T04:47:17.544Z,9.33
2022-10-10T04:49:44.650Z,9.22
2022-10-10T04:52:12.068Z,9.11
2022-10-10T04:54:38.893Z,9.08
2022-10-10T04:57:05.929Z,9.01
2022-10-10T04:59:32.856Z,8.92
2022-10-10T05:02:01.957Z,8.83
2022-10-10T05:04:29.277Z,8.75
2022-10-10T05:06:56.073Z,8.66
2022-10-10T05:09:27.263Z,8.64
2022-10-10T05:11:54.705Z,8.58
2022-10-10T05:14:21.505Z,8.51
2022-10-10T05:16:48.281Z,8.47
2022-10-10T05:19:15.389Z,8.40
2022-10-10T05:21:42.191Z,8.36
2022-10-10T05:24:08.997Z,8.32
2022-10-10T05:26:40.892Z,8.28
2022-10-10T05:29:09.924Z,8.23
2022-10-10T05:31:36.760Z,8.22
2022-10-10T05:34:03.630Z,8.16
2022-10-10T05:36:30.492Z,8.13
2022-10-10T05:38:57.895Z,8.08
2022-10-10T05:41:24.877Z,8.05
2022-10-10T05:43:51.684Z,7.96
2022-10-10T05:46:20.452Z,7.95
2022-10-10T05:48:47.224Z,7.90
2022-10-10T05:51:14.156Z,7.87
2022-10-10T05:53:41.101Z,7.84
2022-10-10T05:56:08.123Z,7.81
2022-10-10T05:58:35.221Z,7.76
2022-10-10T06:01:05.401Z,7.73
2022-10-10T06:03:33.504Z,7.70
2022-10-10T06:06:01.070Z,7.69
2022-10-10T06:08:28.670Z,7.64
2022-10-10T06:11:08.234Z,7.63
2022-10-10T06:13:35.523Z,7.61
2022-10-10T06:16:02.398Z,7.57
2022-10-10T06:18:29.891Z,7.53
2022-10-10T06:21:03.551Z,7.48
2022-10-10T06:23:30.400Z,7.45
2022-10-10T06:25:57.240Z,7.40
2022-10-10T06:28:24.165Z,7.37
2022-10-10T06:30:51.719Z,7.35
2022-10-10T06:33:19.654Z,7.32
2022-10-10T06:35:49.162Z,7.29
2022-10-10T06:38:17.165Z,7.25
2022-10-10T06:40:44.400Z,7.23
2022-10-10T06:43:13.594Z,7.17
2022-10-10T06:45:45.324Z,7.21
2022-10-10T06:48:14.544Z,7.17
2022-10-10T06:50:41.684Z,7.17
2022-10-10T06:53:08.673Z,7.19
2022-10-10T06:55:35.525Z,7.23
2022-10-10T06:58:02.367Z,7.28
2022-10-10T07:00:29.220Z,7.28
2022-10-10T07:02:55.999Z,7.32
2022-10-10T07:05:22.799Z,7.42
2022-10-10T07:07:52.878Z,7.46
2022-10-10T07:10:19.676Z,7.53
2022-10-10T07:12:46.484Z,7.60
2022-10-10T07:15:13.718Z,7.63
2022-10-10T07:17:40.697Z,7.63
2022-10-10T07:20:08.345Z,7.68
2022-10-10T07:22:35.390Z,7.68
2022-10-10T07:25:02.182Z,7.71
2022-10-10T07:27:29.173Z,7.75
2022-10-10T07:29:56.094Z,7.86
2022-10-10T07:32:22.887Z,8.13
2022-10-10T07:34:51.110Z,8.39
2022-10-10T07:37:18.075Z,8.69
2022-10-10T07:39:45.026Z,8.97
2022-10-10T07:42:12.003Z,9.24
2022-10-10T07:44:38.784Z,9.55
2022-10-10T07:47:05.804Z,9.82
2022-10-10T07:49:32.812Z,10.05
2022-10-10T07:52:01.604Z,10.27
2022-10-10T07:54:30.105Z,10.49
2022-10-10T07:56:58.092Z,10.61
2022-10-10T07:59:25.601Z,10.71
2022-10-10T08:01:52.473Z,10.87
2022-10-10T08:04:19.506Z,10.93
2022-10-10T08:06:46.427Z,10.97
2022-10-10T08:09:13.385Z,11.04
2022-10-10T08:11:40.200Z,11.09
2022-10-10T08:14:07.058Z,11.03
2022-10-10T08:16:36.951Z,11.08
2022-10-10T08:19:04.705Z,11.11
2022-10-10T08:21:31.757Z,11.14
2022-10-10T08:23:58.549Z,11.14
2022-10-10T08:26:25.548Z,11.09
2022-10-10T08:28:52.465Z,11.10
2022-10-10T08:31:22.092Z,11.18
2022-10-10T08:33:51.006Z,11.19
2022-10-10T08:36:22.787Z,11.24
2022-10-10T08:38:52.742Z,11.25
2022-10-10T08:41:34.596Z,11.25
2022-10-10T08:44:13.173Z,11.25
2022-10-10T08:47:10.245Z,11.25
2022-10-10T08:49:49.314Z,11.19
2022-10-10T08:52:39.057Z,11.10
2022-10-10T08:55:33.782Z,11.09
2022-10-10T08:58:12.630Z,11.16
2022-10-10T09:00:59.812Z,11.20
2022-10-10T09:03:57.920Z,11.11
2022-10-10T09:07:04.867Z,11.01
2022-10-10T09:09:58.323Z,10.95
2022-10-10T09:12:42.061Z,10.95
2022-10-10T09:15:11.841Z,10.89
2022-10-10T09:18:23.588Z,10.81
2022-10-10T09:21:17.503Z,10.85
2022-10-10T09:24:17.484Z,10.87
2022-10-10T09:26:57.484Z,10.86
2022-10-10T09:29:51.153Z,10.88
2022-10-10T09:33:17.655Z,10.88
2022-10-10T09:35:46.726Z,10.94
2022-10-10T09:38:33.593Z,10.92
2022-10-10T09:41:08.287Z,10.97
2022-10-10T09:43:35.852Z,10.94
2022-10-10T09:46:02.872Z,11.00
2022-10-10T09:48:36.813Z,10.94
2022-10-10T09:51:08.495Z,10.95
2022-10-10T09:53:35.299Z,10.95
2022-10-10T09:56:05.041Z,10.99
2022-10-10T09:58:46.992Z,11.02
2022-10-10T10:01:22.553Z,11.10
2022-10-10T10:04:34.264Z,11.12
2022-10-10T10:07:20.791Z,11.17
2022-10-10T10:09:54.546Z,11.26
2022-10-10T10:12:32.155Z,11.30
2022-10-10T10:15:05.126Z,11.31
2022-10-10T10:17:32.058Z,11.46
2022-10-10T10:19:58.977Z,11.54
2022-10-10T10:22:36.100Z,11.63
2022-10-10T10:25:39.108Z,11.74
2022-10-10T10:28:12.008Z,11.81
2022-10-10T10:30:40.249Z,11.86
2022-10-10T10:33:18.801Z,11.97
2022-10-10T10:35:54.616Z,12.11
2022-10-10T10:38:33.160Z,12.27
2022-10-10T10:41:35.634Z,12.33
2022-10-10T10:44:41.155Z,12.39
2022-10-10T10:47:29.425Z,12.45
2022-10-10T10:50:20.884Z,12.51
2022-10-10T10:53:11.090Z,12.52
2022-10-10T10:55:48.750Z,12.56
2022-10-10T10:59:38.476Z,12.57
2022-10-10T11:01:58.719Z,12.66
2022-10-10T11:05:19.929Z,12.72
2022-10-10T11:08:13.207Z,12.76
2022-10-10T11:11:09.069Z,12.83
2022-10-10T11:14:00.318Z,12.83
2022-10-10T11:16:48.905Z,12.87
2022-10-10T11:19:27.213Z,12.93
2022-10-10T11:22:00.339Z,13.02
2022-10-10T11:25:02.739Z,13.04
2022-10-10T11:28:26.747Z,13.09
2022-10-10T11:31:03.599Z,13.18
2022-10-10T11:33:43.004Z,13.28
2022-10-10T11:36:19.268Z,13.32
2022-10-10T11:38:51.626Z,13.41
2022-10-10T11:41:26.150Z,13.42
2022-10-10T11:44:19.083Z,13.41
2022-10-10T11:47:00.690Z,13.38
2022-10-10T11:49:52.609Z,13.42
2022-10-10T11:53:00.382Z,13.49
2022-10-10T11:55:32.172Z,13.52
2022-10-10T11:58:04.974Z,13.54
2022-10-10T12:00:42.767Z,13.61
2022-10-10T12:03:10.144Z,13.76
2022-10-10T12:05:42.828Z,13.80
2022-10-10T12:08:19.014Z,13.84
2022-10-10T12:10:58.886Z,13.86
2022-10-10T12:13:32.779Z,13.92
2022-10-10T12:16:07.654Z,13.97
2022-10-10T12:19:16.149Z,13.94
2022-10-10T12:21:59.685Z,13.93
2022-10-10T12:24:30.762Z,13.99
2022-10-10T12:26:57.507Z,13.99
2022-10-10T12:29:51.148Z,14.04
2022-10-10T12:32:24.752Z,14.04
2022-10-10T12:34:51.506Z,14.05
2022-10-10T12:37:32.795Z,13.97
2022-10-10T12:40:21.729Z,14.10
2022-10-10T12:42:48.432Z,14.16
2022-10-10T12:45:31.237Z,14.16
2022-10-10T12:48:05.471Z,14.33
2022-10-10T12:50:40.276Z,14.32
2022-10-10T12:53:18.658Z,14.38
2022-10-10T12:55:49.159Z,14.36
2022-10-10T12:58:27.437Z,14.27
2022-10-10T13:01:19.815Z,14.15
2022-10-10T13:03:50.250Z,13.99
2022-10-10T13:06:39.518Z,13.94
2022-10-10T13:09:16.040Z,13.94
2022-10-10T13:11:55.024Z,13.93
2022-10-10T13:14:23.344Z,13.87
2022-10-10T13:16:50.163Z,13.86
2022-10-10T13:19:26.239Z,13.91
2022-10-10T13:21:55.911Z,13.97
2022-10-10T13:24:30.635Z,14.06
2022-10-10T13:26:57.931Z,14.16
2022-10-10T13:29:31.516Z,14.20
2022-10-10T13:32:06.291Z,14.23
2022-10-10T13:34:37.246Z,14.30
2022-10-10T13:37:05.936Z,14.24
2022-10-10T13:39:38.108Z,14.37
2022-10-10T13:42:08.779Z,14.48
2022-10-10T13:44:51.655Z,14.47
2022-10-10T13:47:46.529Z,14.34
2022-10-10T13:50:35.321Z,14.30
2022-10-10T13:53:26.957Z,14.16
2022-10-10T13:56:31.028Z,14.15
2022-10-10T13:59:11.021Z,14.14
2022-10-10T14:01:45.171Z,13.93
2022-10-10T14:04:27.253Z,13.82
2022-10-10T14:07:06.916Z,13.75
2022-10-10T14:09:41.273Z,13.71
2022-10-10T14:12:18.900Z,13.78
2022-10-10T14:14:51.631Z,13.73
2022-10-10T14:17:18.811Z,13.82
2022-10-10T14:19:47.837Z,13.83
2022-10-10T14:22:14.603Z,13.84
2022-10-10T14:24:41.400Z,13.77
2022-10-10T14:27:24.908Z,13.75
2022-10-10T14:29:54.602Z,13.70
2022-10-10T14:32:22.207Z,13.71
2022-10-10T14:34:49.119Z,13.62
2022-10-10T14:37:25.397Z,13.71
2022-10-10T14:39:52.899Z,13.71
2022-10-10T14:42:21.651Z,13.76
2022-10-10T14:44:48.491Z,13.73
2022-10-10T14:47:19.379Z,13.74
2022-10-10T14:49:46.720Z,13.73
2022-10-10T14:52:13.777Z,13.76
2022-10-10T14:54:40.979Z,13.77
2022-10-10T14:57:10.328Z,13.81
2022-10-10T14:59:46.156Z,13.86
2022-10-10T15:02:19.786Z,13.74
2022-10-10T15:04:46.672Z,13.71
2022-10-10T15:07:15.023Z,13.68
2022-10-10T15:12:41.831Z,13.61
2022-10-10T15:15:10.973Z,13.53
2022-10-10T15:17:37.836Z,13.51
2022-10-10T15:20:08.419Z,13.44
2022-10-10T15:22:35.962Z,13.40
2022-10-10T15:25:03.323Z,13.34
2022-10-10T15:27:30.156Z,13.34
2022-10-10T15:29:57.165Z,13.25
2022-10-10T15:32:24.229Z,13.25
2022-10-10T15:34:52.411Z,13.09
2022-10-10T15:37:19.608Z,13.10
2022-10-10T15:39:46.549Z,12.99
2022-10-10T15:42:18.516Z,12.95
2022-10-10T15:44:49.934Z,12.87
2022-10-10T15:47:18.906Z,12.84
2022-10-10T15:49:45.833Z,12.82
2022-10-10T15:52:13.342Z,12.77
2022-10-10T15:54:40.330Z,12.79
2022-10-10T15:57:07.162Z,12.73
2022-10-10T15:59:35.745Z,12.71
2022-10-10T16:02:04.696Z,12.63
2022-10-10T16:04:31.534Z,12.59
2022-10-10T16:09:45.171Z,12.54
2022-10-10T16:12:12.067Z,12.48
2022-10-10T16:14:39.201Z,12.46
2022-10-10T16:17:05.984Z,12.41
2022-10-10T16:19:32.850Z,12.34
2022-10-10T16:21:59.698Z,12.29
2022-10-10T16:24:26.472Z,12.27
2022-10-10T16:26:53.473Z,12.23
2022-10-10T16:29:20.860Z,12.23
2022-10-10T16:31:47.780Z,12.17
2022-10-10T16:34:16.161Z,12.13
2022-10-10T16:36:43.129Z,12.04
2022-10-10T16:39:10.251Z,12.00
2022-10-10T16:41:52.672Z,11.93
2022-10-10T16:44:19.511Z,11.87
2022-10-10T16:46:46.944Z,11.81
2022-10-10T16:49:16.865Z,11.71
2022-10-10T16:51:43.855Z,11.68
2022-10-10T16:54:10.722Z,11.62
2022-10-10T16:56:37.755Z,11.56
2022-10-10T16:59:04.734Z,11.45
2022-10-10T17:01:31.861Z,11.42
2022-10-10T17:04:00.698Z,11.32
2022-10-10T17:06:34.259Z,11.27
2022-10-10T17:09:02.956Z,11.22
2022-10-10T17:11:30.221Z,11.16
2022-10-10T17:13:57.157Z,11.14
2022-10-10T17:19:14.530Z,10.93
2022-10-10T17:21:41.349Z,10.91
2022-10-10T17:24:08.578Z,10.82
2022-10-10T17:26:35.509Z,10.80
2022-10-10T17:29:02.317Z,10.75
2022-10-10T17:31:29.529Z,10.68
2022-10-10T17:33:57.637Z,10.62
2022-10-10T17:36:27.805Z,10.60
2022-10-10T17:39:01.599Z,10.56
2022-10-10T17:41:29.954Z,10.45
2022-10-10T17:43:57.426Z,10.42
2022-10-10T17:46:34.702Z,10.39
2022-10-10T17:49:05.267Z,10.34
2022-10-10T17:51:32.115Z,10.30
2022-10-10T17:54:00.604Z,10.25
2022-10-10T17:56:27.845Z,10.21
2022-10-10T17:58:54.992Z,10.15
2022-10-10T18:01:22.652Z,10.07
2022-10-10T18:03:49.889Z,10.03
2022-10-10T18:06:21.720Z,9.98
2022-10-10T18:08:51.430Z,9.88
2022-10-10T18:11:25.598Z,9.81
2022-10-10T18:13:53.646Z,9.75
2022-10-10T18:16:23.183Z,9.69
2022-10-10T18:18:52.118Z,9.61
2022-10-10T18:21:21.743Z,9.52
2022-10-10T18:23:49.719Z,9.48
2022-10-10T18:26:23.749Z,9.39
2022-10-10T18:28:52.688Z,9.34
2022-10-10T18:31:26.410Z,9.29
2022-10-10T18:33:54.181Z,9.23
2022-10-10T18:36:25.940Z,9.16
2022-10-10T18:38:53.194Z,9.11
2022-10-10T18:41:23.525Z,9.06
2022-10-10T18:43:51.839Z,9.01
2022-10-10T18:46:24.020Z,8.96
2022-10-10T18:48:54.002Z,8.91
2022-10-10T18:51:26.381Z,8.88
2022-10-10T18:54:05.886Z,8.83
2022-10-10T18:56:34.054Z,8.80
2022-10-10T18:59:06.624Z,8.76
2022-10-10T19:01:37.052Z,8.73
2022-10-10T19:04:07.393Z,8.70
2022-10-10T19:06:36.356Z,8.69
2022-10-10T19:09:06.373Z,8.67
2022-10-10T19:11:39.322Z,8.64
2022-10-10T19:14:10.418Z,8.62
2022-10-10T19:16:42.257Z,8.61
2022-10-10T19:19:13.028Z,8.61
2022-10-10T19:21:40.420Z,8.57
2022-10-10T19:24:09.008Z,8.59
2022-10-10T19:26:37.226Z,8.61
2022-10-10T19:29:07.521Z,8.61
2022-10-10T19:31:36.559Z,8.61
2022-10-10T19:34:04.080Z,8.63
2022-10-10T19:36:31.001Z,8.61
2022-10-10T19:39:00.182Z,8.59
2022-10-10T19:41:27.390Z,8.57
2022-10-10T19:43:54.254Z,8.51
2022-10-10T19:46:23.333Z,8.50
2022-10-10T19:48:51.918Z,8.49
2022-10-10T19:51:19.619Z,8.45
2022-10-10T19:53:47.309Z,8.44
2022-10-10T19:56:26.613Z,8.43
2022-10-10T19:58:59.749Z,8.40
2022-10-10T20:01:29.985Z,8.39
2022-10-10T20:03:58.095Z,8.36
2022-10-10T20:06:25.456Z,8.34
2022-10-10T20:08:52.285Z,8.34
2022-10-10T20:11:20.466Z,8.36
2022-10-10T20:13:49.584Z,8.34
2022-10-10T20:16:16.685Z,8.32
2022-10-10T20:18:43.937Z,8.32
2022-10-10T20:21:23.499Z,8.33
2022-10-10T20:23:51.072Z,8.31
2022-10-10T20:26:23.468Z,8.29
2022-10-10T20:28:51.931Z,8.29
2022-10-10T20:31:29.237Z,8.28
2022-10-10T20:33:58.976Z,8.28
2022-10-10T20:36:26.258Z,8.27
2022-10-10T20:39:00.925Z,8.22
2022-10-10T20:41:32.081Z,8.23
2022-10-10T20:44:03.189Z,8.22
2022-10-10T20:46:35.618Z,8.20
2022-10-10T20:49:06.424Z,8.18
2022-10-10T20:51:33.313Z,8.16
2022-10-10T20:54:02.697Z,8.15
2022-10-10T20:56:31.607Z,8.11
2022-10-10T20:58:59.917Z,8.08
2022-10-10T21:01:29.415Z,8.04
2022-10-10T21:03:56.355Z,7.99
2022-10-10T21:06:29.025Z,7.97
2022-10-10T21:08:56.861Z,7.92
2022-10-10T21:11:24.359Z,7.87
2022-10-10T21:13:57.480Z,7.83
2022-10-10T21:16:27.978Z,7.81
2022-10-10T21:18:57.909Z,7.77
2022-10-10T21:21:28.394Z,7.73
2022-10-10T21:23:56.743Z,7.74
2022-10-10T21:26:30.009Z,7.69
2022-10-10T21:28:57.615Z,7.67
2022-10-10T21:31:28.324Z,7.63
2022-10-10T21:33:55.971Z,7.61
2022-10-10T21:36:25.355Z,7.61
2022-10-10T21:38:53.623Z,7.59
2022-10-10T21:41:21.725Z,7.58
2022-10-10T21:43:54.864Z,7.57
2022-10-10T21:46:29.794Z,7.60
2022-10-10T21:49:00.501Z,7.61
2022-10-10T21:51:27.401Z,7.64
2022-10-10T21:53:58.848Z,7.59
2022-10-10T21:56:26.588Z,7.59
2022-10-10T21:59:00.160Z,7.59
2022-10-10T22:01:28.130Z,7.57
2022-10-10T22:03:56.516Z,7.55
2022-10-10T22:06:25.195Z,7.54
2022-10-10T22:08:55.042Z,7.56
2022-10-10T22:11:26.153Z,7.51
2022-10-10T22:13:53.004Z,7.52
2022-10-10T22:16:20.856Z,7.49
2022-10-10T22:18:47.880Z,7.46
2022-10-10T22:21:17.268Z,7.41
2022-10-10T22:23:45.026Z,7.42
2022-10-10T22:26:15.190Z,7.38
2022-10-10T22:28:42.199Z,7.37
2022-10-10T22:31:13.069Z,7.38
2022-10-10T22:33:40.630Z,7.38
2022-10-10T22:36:09.018Z,7.36
2022-10-10T22:38:43.919Z,7.37
2022-10-10T22:41:12.491Z,7.37
2022-10-10T22:43:40.101Z,7.36
2022-10-10T22:46:08.195Z,7.34
2022-10-10T22:48:36.001Z,7.33
2022-10-10T22:51:16.608Z,7.33
2022-10-10T22:53:45.846Z,7.33
2022-10-10T22:56:19.436Z,7.30
2022-10-10T22:58:48.172Z,7.30
2022-10-10T23:01:18.787Z,7.30
2022-10-10T23:03:46.580Z,7.29
2022-10-10T23:06:14.030Z,7.27
2022-10-10T23:08:41.023Z,7.28
2022-10-10T23:11:08.300Z,7.22
2022-10-10T23:13:35.113Z,7.21
2022-10-10T23:16:02.407Z,7.20
2022-10-10T23:18:30.603Z,7.20
2022-10-10T23:20:57.404Z,7.21
2022-10-10T23:23:25.287Z,7.23
2022-10-10T23:25:52.320Z,7.23
2022-10-10T23:28:19.528Z,7.20
2022-10-10T23:30:48.407Z,7.20
2022-10-10T23:33:17.153Z,7.16
2022-10-10T23:35:43.988Z,7.12
2022-10-10T23:38:10.959Z,7.11
2022-10-10T23:40:37.780Z,7.07
2022-10-10T23:43:04.731Z,7.05
2022-10-10T23:45:31.913Z,7.00
2022-10-10T23:47:58.681Z,6.95
2022-10-10T23:50:25.563Z,6.92
2022-10-10T23:52:52.816Z,6.91
2022-10-10T23:55:19.617Z,6.92
2022-10-10T23:57:46.392Z,6.89
